Time;durP1;ratioP1;P1;durP2;ratioP2;P2;SDS_P1;SDS_P2;PMS_P1;PMS_P2;Temp;Humidity;BMP_temperature;BMP_pressure;BME280_temperature;BME280_humidity;BME280_pressure;Samples;Min_cycle;Max_cycle;Signal;HPM_P1;HPM_P2
2021/10/23 00:02:19;;;;;;;17.60;10.00;;;12.20;99.90;;;;;;5055784;28;20198;-84
2021/10/23 00:04:45;;;;;;;21.20;9.57;;;12.20;99.90;;;;;;5040989;28;20192;-85
2021/10/23 00:07:11;;;;;;;16.87;9.60;;;12.20;99.90;;;;;;5040272;28;20263;-86
2021/10/23 00:09:38;;;;;;;19.13;10.63;;;12.30;99.90;;;;;;5073290;28;20191;-86
2021/10/23 00:12:05;;;;;;;18.77;10.47;;;12.40;99.90;;;;;;5041307;28;20190;-86
2021/10/23 00:14:31;;;;;;;18.70;10.70;;;12.40;99.90;;;;;;5058214;28;20187;-87
2021/10/23 00:16:56;;;;;;;16.10;10.10;;;12.30;99.90;;;;;;5041231;28;20180;-86
2021/10/23 00:19:22;;;;;;;21.53;10.17;;;12.30;99.90;;;;;;5072246;28;20179;-87
2021/10/23 00:21:48;;;;;;;20.80;10.20;;;12.30;99.90;;;;;;5055930;28;20192;-86
2021/10/23 00:24:14;;;;;;;17.93;10.40;;;12.30;99.90;;;;;;5055249;28;20302;-86
2021/10/23 00:26:40;;;;;;;26.17;11.00;;;12.30;99.90;;;;;;5043582;28;20191;-86
2021/10/23 00:29:06;;;;;;;20.20;10.70;;;12.30;99.90;;;;;;5055296;28;20219;-87
2021/10/23 00:31:32;;;;;;;21.77;10.97;;;12.30;99.90;;;;;;5040069;28;20642;-87
2021/10/23 00:33:58;;;;;;;22.43;11.33;;;12.30;99.90;;;;;;5075384;28;20191;-87
2021/10/23 00:36:23;;;;;;;19.73;11.43;;;12.30;99.90;;;;;;5044812;28;20225;-87
2021/10/23 00:38:49;;;;;;;21.33;11.53;;;12.30;99.90;;;;;;5094797;28;20545;-86
2021/10/23 00:41:15;;;;;;;21.13;11.63;;;12.20;99.90;;;;;;5045255;28;20271;-87
2021/10/23 00:43:44;;;;;;;20.20;11.23;;;12.20;99.90;;;;;;5078082;28;20280;-87
2021/10/23 00:46:12;;;;;;;21.17;10.90;;;12.20;99.90;;;;;;5057787;28;20184;-86
2021/10/23 00:48:37;;;;;;;22.10;12.13;;;12.20;99.90;;;;;;5057635;28;20206;-86
2021/10/23 00:51:03;;;;;;;21.83;11.77;;;12.20;99.90;;;;;;5061177;28;20264;-86
2021/10/23 00:53:29;;;;;;;21.43;11.43;;;12.20;99.90;;;;;;5040180;28;20186;-86
2021/10/23 00:55:55;;;;;;;21.77;11.20;;;12.00;99.90;;;;;;5064819;28;20214;-86
2021/10/23 00:58:21;;;;;;;23.83;11.80;;;11.90;99.90;;;;;;5064981;28;20588;-85
2021/10/23 01:00:46;;;;;;;25.23;12.47;;;12.10;99.90;;;;;;5044910;28;20194;-86
2021/10/23 01:03:13;;;;;;;22.67;11.67;;;12.10;99.90;;;;;;5054519;28;20239;-86
2021/10/23 01:05:39;;;;;;;23.80;12.20;;;12.00;99.90;;;;;;5058434;28;20210;-86
2021/10/23 01:08:05;;;;;;;22.13;11.63;;;12.00;99.90;;;;;;5076105;28;20212;-85
2021/10/23 01:10:31;;;;;;;23.73;12.43;;;12.00;99.90;;;;;;5062256;28;20214;-84
2021/10/23 01:12:58;;;;;;;24.07;13.20;;;12.00;99.90;;;;;;5045051;28;20239;-86
2021/10/23 01:15:26;;;;;;;24.80;12.37;;;11.90;99.90;;;;;;5059400;28;20190;-86
2021/10/23 01:17:55;;;;;;;22.80;12.80;;;11.90;99.90;;;;;;5044760;28;20190;-86
2021/10/23 01:20:23;;;;;;;20.33;12.20;;;11.90;99.90;;;;;;5062422;28;20283;-86
2021/10/23 01:22:50;;;;;;;25.13;12.93;;;11.90;99.90;;;;;;5059959;28;20289;-85
2021/10/23 01:25:17;;;;;;;23.67;12.87;;;11.90;99.90;;;;;;5044222;28;20295;-86
2021/10/23 01:27:43;;;;;;;24.97;13.57;;;11.80;99.90;;;;;;5041520;28;20214;-86
2021/10/23 01:30:11;;;;;;;27.47;13.60;;;11.80;99.90;;;;;;5060559;28;20226;-87
2021/10/23 01:32:38;;;;;;;25.20;13.00;;;11.70;99.90;;;;;;5073427;28;20182;-86
2021/10/23 01:35:05;;;;;;;21.00;12.67;;;11.70;99.90;;;;;;5059090;28;20190;-86
2021/10/23 01:37:35;;;;;;;21.60;12.53;;;11.60;99.90;;;;;;5059054;28;20688;-86
2021/10/23 01:40:01;;;;;;;22.93;12.37;;;11.60;99.90;;;;;;5066288;28;20195;-86
2021/10/23 01:42:27;;;;;;;19.63;11.73;;;11.60;99.90;;;;;;5044138;28;21038;-86
2021/10/23 01:44:52;;;;;;;27.73;13.20;;;11.60;99.90;;;;;;5059019;28;20204;-87
2021/10/23 01:47:21;;;;;;;26.03;13.67;;;11.70;99.90;;;;;;5076828;28;20272;-86
2021/10/23 01:49:47;;;;;;;25.97;13.30;;;11.80;99.90;;;;;;5090447;28;20183;-86
2021/10/23 01:52:13;;;;;;;26.73;14.50;;;11.80;99.90;;;;;;5063546;28;20184;-86
2021/10/23 01:54:39;;;;;;;24.93;13.67;;;11.70;99.90;;;;;;5055019;28;20726;-86
2021/10/23 01:57:05;;;;;;;23.20;14.10;;;11.70;99.90;;;;;;5057136;28;20225;-86
2021/10/23 01:59:30;;;;;;;24.47;14.00;;;11.80;99.90;;;;;;5089798;28;20196;-86
2021/10/23 02:01:56;;;;;;;25.77;14.67;;;11.70;99.90;;;;;;5053607;28;20194;-85
2021/10/23 02:04:22;;;;;;;27.77;14.63;;;11.70;99.90;;;;;;5092483;28;20199;-86
2021/10/23 02:06:48;;;;;;;24.77;15.17;;;11.70;99.90;;;;;;5056844;28;20177;-85
2021/10/23 02:09:13;;;;;;;29.80;15.77;;;11.70;99.90;;;;;;5043670;28;21030;-85
2021/10/23 02:11:39;;;;;;;25.83;16.37;;;11.60;99.90;;;;;;5074227;28;20187;-86
2021/10/23 02:14:05;;;;;;;31.20;16.13;;;11.50;99.90;;;;;;5059135;28;20229;-86
2021/10/23 02:16:31;;;;;;;32.07;16.23;;;11.40;99.90;;;;;;5039255;28;20210;-85
2021/10/23 02:18:57;;;;;;;31.33;17.20;;;11.40;99.90;;;;;;5060633;28;20197;-85
2021/10/23 02:21:23;;;;;;;36.33;17.83;;;11.30;99.90;;;;;;5044033;28;20279;-86
2021/10/23 02:23:49;;;;;;;31.60;17.40;;;11.20;99.90;;;;;;5076102;28;20234;-86
2021/10/23 02:26:14;;;;;;;29.83;17.40;;;11.10;99.90;;;;;;5043867;28;20186;-86
2021/10/23 02:28:41;;;;;;;28.63;16.23;;;11.00;99.90;;;;;;5057261;28;20202;-86
2021/10/23 02:31:07;;;;;;;30.00;16.87;;;10.80;99.90;;;;;;5071911;28;20250;-85
2021/10/23 02:33:33;;;;;;;26.93;15.47;;;10.70;99.90;;;;;;5046484;28;20598;-86
2021/10/23 02:35:59;;;;;;;28.93;16.30;;;10.70;99.90;;;;;;5060331;28;20205;-85
2021/10/23 02:38:25;;;;;;;30.70;16.50;;;10.60;99.90;;;;;;5080090;28;20220;-86
2021/10/23 02:40:51;;;;;;;25.67;15.50;;;10.60;99.90;;;;;;5094129;28;20236;-86
2021/10/23 02:43:17;;;;;;;25.17;14.43;;;10.60;99.90;;;;;;5042681;28;20226;-86
2021/10/23 02:45:44;;;;;;;27.83;15.93;;;10.60;99.90;;;;;;5092318;28;20214;-86
2021/10/23 02:48:10;;;;;;;29.07;15.07;;;10.50;99.90;;;;;;5093275;28;20218;-86
2021/10/23 02:50:36;;;;;;;30.37;17.00;;;10.50;99.90;;;;;;5043839;28;20166;-87
2021/10/23 02:53:02;;;;;;;33.23;18.47;;;10.50;99.90;;;;;;5047640;28;20273;-86
2021/10/23 02:55:28;;;;;;;34.53;18.90;;;10.60;99.90;;;;;;5061274;28;20190;-87
2021/10/23 02:57:53;;;;;;;35.77;20.40;;;10.70;99.90;;;;;;5038389;28;20491;-86
2021/10/23 03:00:21;;;;;;;37.20;19.13;;;10.70;99.90;;;;;;5057774;28;20601;-87
2021/10/23 03:02:47;;;;;;;34.73;19.43;;;10.70;99.90;;;;;;5075862;28;20178;-86
2021/10/23 03:05:13;;;;;;;30.17;18.60;;;10.60;99.90;;;;;;5073524;28;20311;-86
2021/10/23 03:07:39;;;;;;;37.93;19.30;;;10.60;99.90;;;;;;5051385;28;20275;-86
2021/10/23 03:10:06;;;;;;;32.40;19.47;;;10.60;99.90;;;;;;5044129;28;20164;-86
2021/10/23 03:12:32;;;;;;;35.20;18.37;;;10.60;99.90;;;;;;5040190;28;20182;-86
2021/10/23 03:14:59;;;;;;;37.83;19.63;;;10.70;99.90;;;;;;5055687;28;20185;-86
2021/10/23 03:17:24;;;;;;;32.97;19.13;;;10.70;99.90;;;;;;5039482;28;20183;-85
2021/10/23 03:19:50;;;;;;;32.63;19.50;;;10.70;99.90;;;;;;5040173;28;20634;-85
2021/10/23 03:22:17;;;;;;;32.90;19.93;;;10.70;99.90;;;;;;5042207;28;20560;-85
2021/10/23 03:24:42;;;;;;;36.47;19.60;;;10.60;99.90;;;;;;5041693;28;20234;-85
2021/10/23 03:27:08;;;;;;;38.10;20.73;;;10.60;99.90;;;;;;5044704;28;20545;-86
2021/10/23 03:29:34;;;;;;;34.43;20.20;;;10.60;99.90;;;;;;5038924;28;20581;-85
2021/10/23 03:32:00;;;;;;;39.10;20.03;;;10.60;99.90;;;;;;5058637;28;20190;-85
2021/10/23 03:34:26;;;;;;;41.37;21.30;;;10.40;99.90;;;;;;5053279;28;20199;-83
2021/10/23 03:36:52;;;;;;;34.33;20.37;;;10.40;99.90;;;;;;5058173;28;20767;-83
2021/10/23 03:39:18;;;;;;;37.00;21.27;;;10.40;99.90;;;;;;5041788;28;20674;-86
2021/10/23 03:41:44;;;;;;;35.53;20.07;;;10.30;99.90;;;;;;5072613;28;20177;-86
2021/10/23 03:44:10;;;;;;;34.60;20.17;;;10.20;99.90;;;;;;5060404;28;20617;-86
2021/10/23 03:46:36;;;;;;;36.40;19.90;;;10.20;99.90;;;;;;5073116;28;20191;-85
2021/10/23 03:49:02;;;;;;;32.47;19.60;;;10.20;99.90;;;;;;5073342;28;20189;-84
2021/10/23 03:51:28;;;;;;;34.67;19.27;;;10.20;99.90;;;;;;5053441;28;20279;-84
2021/10/23 03:53:53;;;;;;;33.23;18.57;;;10.10;99.90;;;;;;5089151;28;20276;-83
2021/10/23 03:56:19;;;;;;;28.87;15.87;;;10.10;99.90;;;;;;5039896;28;20194;-86
2021/10/23 03:58:45;;;;;;;27.27;16.17;;;10.00;99.90;;;;;;5053892;28;20228;-83
2021/10/23 04:01:11;;;;;;;29.67;15.93;;;9.90;99.90;;;;;;5073058;28;20583;-84
2021/10/23 04:03:36;;;;;;;27.27;16.67;;;9.90;99.90;;;;;;5038760;28;20280;-85
2021/10/23 04:06:02;;;;;;;29.83;17.60;;;9.80;99.90;;;;;;5074251;28;20634;-86
2021/10/23 04:08:28;;;;;;;31.07;17.83;;;9.80;99.90;;;;;;5042715;28;20267;-84
2021/10/23 04:10:54;;;;;;;37.17;21.03;;;9.90;99.90;;;;;;5090456;28;20185;-85
2021/10/23 04:13:19;;;;;;;38.00;21.53;;;10.00;99.90;;;;;;5045566;28;20188;-87
2021/10/23 04:15:45;;;;;;;37.63;20.60;;;10.10;99.90;;;;;;5040626;28;20192;-84
2021/10/23 04:18:11;;;;;;;32.87;18.43;;;10.10;99.90;;;;;;5039618;28;20553;-85
2021/10/23 04:20:37;;;;;;;35.67;20.00;;;9.90;99.90;;;;;;5065727;28;20186;-85
2021/10/23 04:23:02;;;;;;;34.40;18.47;;;9.80;99.90;;;;;;5063284;28;20378;-85
2021/10/23 04:25:28;;;;;;;34.67;18.77;;;9.70;99.90;;;;;;5044713;28;20211;-84
2021/10/23 04:27:54;;;;;;;33.57;18.60;;;9.70;99.90;;;;;;5080117;28;20180;-85
2021/10/23 04:30:21;;;;;;;34.00;18.63;;;9.70;99.90;;;;;;5043088;28;20176;-84
2021/10/23 04:32:46;;;;;;;34.50;19.93;;;9.60;99.90;;;;;;5089712;28;20201;-84
2021/10/23 04:35:12;;;;;;;36.83;21.33;;;9.70;99.90;;;;;;5038599;28;20643;-84
2021/10/23 04:37:40;;;;;;;38.83;22.50;;;9.80;99.90;;;;;;5046095;28;20234;-85
2021/10/23 04:40:07;;;;;;;37.97;20.70;;;9.80;99.90;;;;;;5055099;28;20190;-85
2021/10/23 04:42:33;;;;;;;34.17;19.23;;;9.80;99.90;;;;;;5059913;28;20702;-86
2021/10/23 04:44:59;;;;;;;34.60;19.53;;;9.70;99.90;;;;;;5088490;28;20211;-87
2021/10/23 04:47:24;;;;;;;34.30;19.97;;;9.70;99.90;;;;;;5056147;28;20573;-86
2021/10/23 04:49:50;;;;;;;34.30;20.40;;;9.60;99.90;;;;;;5059107;28;20182;-86
2021/10/23 04:52:16;;;;;;;34.83;20.80;;;9.60;99.90;;;;;;5064864;28;20189;-85
2021/10/23 04:54:42;;;;;;;36.13;21.43;;;9.70;99.90;;;;;;5042066;28;20273;-84
2021/10/23 04:57:07;;;;;;;41.67;22.70;;;9.80;99.90;;;;;;5042577;28;20708;-87
2021/10/23 04:59:33;;;;;;;42.63;23.47;;;9.90;99.90;;;;;;5072555;28;20555;-86
2021/10/23 05:01:59;;;;;;;38.43;21.97;;;10.10;99.90;;;;;;5043144;28;20239;-86
2021/10/23 05:04:24;;;;;;;38.00;21.23;;;10.10;99.90;;;;;;5039967;28;20212;-87
2021/10/23 05:06:50;;;;;;;35.87;21.07;;;10.00;99.90;;;;;;5040520;28;20272;-86
2021/10/23 05:09:16;;;;;;;35.77;20.23;;;10.00;99.90;;;;;;5042027;28;20499;-84
2021/10/23 05:11:41;;;;;;;35.30;20.40;;;10.00;99.90;;;;;;5058326;28;20279;-86
2021/10/23 05:14:07;;;;;;;35.60;20.00;;;10.00;99.90;;;;;;5060537;28;20591;-86
2021/10/23 05:16:33;;;;;;;33.70;20.10;;;10.00;99.90;;;;;;5055293;28;20197;-87
2021/10/23 05:18:59;;;;;;;33.83;20.10;;;10.00;99.90;;;;;;5057148;28;20233;-86
2021/10/23 05:21:24;;;;;;;32.23;18.93;;;10.00;99.90;;;;;;5056643;28;20197;-85
2021/10/23 05:23:53;;;;;;;28.83;18.07;;;10.00;99.90;;;;;;5079403;28;20211;-85
2021/10/23 05:26:19;;;;;;;28.50;18.83;;;10.00;99.90;;;;;;5073959;28;20640;-85
2021/10/23 05:28:45;;;;;;;30.13;18.47;;;10.00;99.90;;;;;;5076790;28;20184;-86
2021/10/23 05:31:11;;;;;;;30.63;17.40;;;10.00;99.90;;;;;;5059977;28;20182;-85
2021/10/23 05:33:36;;;;;;;36.47;17.93;;;10.20;99.90;;;;;;5060502;28;20169;-86
2021/10/23 05:36:02;;;;;;;32.40;18.37;;;10.20;99.90;;;;;;5076015;28;20657;-86
2021/10/23 05:38:28;;;;;;;27.60;17.07;;;10.30;99.90;;;;;;5090139;28;20258;-86
2021/10/23 05:40:54;;;;;;;25.87;16.57;;;10.40;99.90;;;;;;5079943;28;20190;-86
2021/10/23 05:43:20;;;;;;;28.53;16.50;;;10.20;99.90;;;;;;5058094;28;20209;-85
2021/10/23 05:45:46;;;;;;;31.43;16.33;;;10.20;99.90;;;;;;5065607;28;20211;-85
2021/10/23 05:48:12;;;;;;;21.50;14.50;;;10.20;99.90;;;;;;5045891;28;20316;-86
2021/10/23 05:50:38;;;;;;;24.60;14.77;;;10.10;99.90;;;;;;5063023;28;20190;-85
2021/10/23 05:53:03;;;;;;;25.27;16.20;;;10.10;99.90;;;;;;5073750;28;20190;-85
2021/10/23 05:55:29;;;;;;;23.30;15.17;;;10.10;99.90;;;;;;5062116;28;20215;-85
2021/10/23 05:57:55;;;;;;;30.77;15.67;;;10.20;99.90;;;;;;5090082;28;20189;-85
2021/10/23 06:00:20;;;;;;;30.90;16.20;;;10.30;99.90;;;;;;5058849;28;20328;-85
2021/10/23 06:02:48;;;;;;;25.53;15.67;;;10.40;99.90;;;;;;5057283;28;20184;-85
2021/10/23 06:05:14;;;;;;;26.03;16.23;;;10.50;99.90;;;;;;5037540;28;20234;-86
2021/10/23 06:07:41;;;;;;;29.80;16.90;;;10.50;99.90;;;;;;5078712;28;20263;-85
2021/10/23 06:10:10;;;;;;;29.73;16.57;;;10.50;99.90;;;;;;5043786;28;20222;-85
2021/10/23 06:12:36;;;;;;;33.30;16.63;;;10.60;99.90;;;;;;5040294;28;20196;-84
2021/10/23 06:15:03;;;;;;;24.83;16.27;;;10.70;99.90;;;;;;5078441;28;20212;-85
2021/10/23 06:17:29;;;;;;;23.47;14.50;;;10.60;99.90;;;;;;5043387;28;20186;-84
2021/10/23 06:19:55;;;;;;;25.77;14.77;;;10.60;99.90;;;;;;5082172;28;20611;-85
2021/10/23 06:22:21;;;;;;;27.57;15.40;;;10.50;99.90;;;;;;5046297;28;20874;-85
2021/10/23 06:24:47;;;;;;;25.67;14.87;;;10.50;99.90;;;;;;5060785;28;20207;-85
2021/10/23 06:27:12;;;;;;;26.03;15.03;;;10.50;99.90;;;;;;5060526;28;20182;-85
2021/10/23 06:29:39;;;;;;;26.77;15.77;;;10.60;99.90;;;;;;5094410;28;20287;-85
2021/10/23 06:32:06;;;;;;;25.07;15.80;;;10.60;99.90;;;;;;5057143;28;20185;-85
2021/10/23 06:34:32;;;;;;;28.23;16.07;;;10.60;99.90;;;;;;5065352;28;20178;-85
2021/10/23 06:36:57;;;;;;;28.67;16.20;;;10.60;99.90;;;;;;5042118;28;20213;-85
2021/10/23 06:39:23;;;;;;;30.20;16.23;;;10.60;99.90;;;;;;5041613;28;20197;-86
2021/10/23 06:41:49;;;;;;;29.33;16.30;;;10.70;99.90;;;;;;5073717;28;20186;-86
2021/10/23 06:44:15;;;;;;;26.53;15.80;;;10.70;99.90;;;;;;5061553;28;20210;-87
2021/10/23 06:46:41;;;;;;;26.07;15.80;;;10.80;99.90;;;;;;5057586;28;20203;-87
2021/10/23 06:49:09;;;;;;;25.33;15.50;;;10.90;99.90;;;;;;5078453;28;20260;-87
2021/10/23 06:51:36;;;;;;;27.83;16.00;;;10.90;99.90;;;;;;5057545;28;20186;-86
2021/10/23 06:54:02;;;;;;;23.57;16.07;;;10.90;99.90;;;;;;5061164;28;20183;-86
2021/10/23 06:56:29;;;;;;;27.77;15.97;;;11.00;99.90;;;;;;5075134;28;20190;-86
2021/10/23 06:58:55;;;;;;;27.57;15.13;;;11.00;99.90;;;;;;5075338;28;20218;-86
2021/10/23 07:01:21;;;;;;;26.67;15.30;;;11.00;99.90;;;;;;5042079;28;20236;-87
2021/10/23 07:03:47;;;;;;;29.97;16.23;;;11.10;99.90;;;;;;5064187;28;20179;-85
2021/10/23 07:06:13;;;;;;;27.63;14.80;;;11.10;99.90;;;;;;5062017;28;20686;-86
2021/10/23 07:08:39;;;;;;;30.57;15.03;;;11.20;99.90;;;;;;5075796;28;20182;-86
2021/10/23 07:11:09;;;;;;;27.43;14.67;;;11.20;99.90;;;;;;5089542;28;20191;-87
2021/10/23 07:13:36;;;;;;;29.80;15.70;;;11.30;99.90;;;;;;5077198;28;20224;-87
2021/10/23 07:16:02;;;;;;;25.07;14.67;;;11.20;99.90;;;;;;5057433;28;20182;-88
2021/10/23 07:18:28;;;;;;;25.37;14.70;;;11.20;99.90;;;;;;5078011;28;20198;-87
2021/10/23 07:20:54;;;;;;;29.33;15.50;;;11.30;99.90;;;;;;5042321;28;20182;-87
2021/10/23 07:23:20;;;;;;;29.17;15.03;;;11.20;99.90;;;;;;5059487;28;20315;-87
2021/10/23 07:25:46;;;;;;;25.70;14.63;;;11.30;99.90;;;;;;5059109;28;20708;-88
2021/10/23 07:28:13;;;;;;;25.60;14.43;;;11.40;99.90;;;;;;5060839;28;20254;-87
2021/10/23 07:30:39;;;;;;;22.80;13.43;;;11.40;99.90;;;;;;5073387;28;20184;-87
2021/10/23 07:33:05;;;;;;;24.67;13.90;;;11.40;99.90;;;;;;5045419;28;20184;-86
2021/10/23 07:35:33;;;;;;;23.10;13.90;;;11.40;99.90;;;;;;5062424;28;20184;-86
2021/10/23 07:38:00;;;;;;;22.77;14.27;;;11.50;99.90;;;;;;5038587;28;20233;-87
2021/10/23 07:40:26;;;;;;;26.33;13.93;;;11.60;99.90;;;;;;5063644;28;20641;-86
2021/10/23 07:42:51;;;;;;;23.97;13.37;;;11.60;99.90;;;;;;5059620;28;20190;-86
2021/10/23 07:45:17;;;;;;;23.83;13.67;;;11.60;99.90;;;;;;5044866;28;20211;-87
2021/10/23 07:47:43;;;;;;;21.43;12.77;;;11.60;99.90;;;;;;5047530;28;20206;-87
2021/10/23 07:50:11;;;;;;;23.10;13.20;;;11.70;99.90;;;;;;5061795;28;20209;-86
2021/10/23 07:52:39;;;;;;;20.77;12.87;;;11.80;99.90;;;;;;5057444;28;20316;-87
2021/10/23 07:55:07;;;;;;;20.53;12.80;;;11.90;99.90;;;;;;5042174;28;20301;-88
2021/10/23 07:57:34;;;;;;;20.93;11.73;;;12.00;99.90;;;;;;5062859;28;20205;-87
2021/10/23 08:00:00;;;;;;;22.80;11.50;;;12.10;99.90;;;;;;5074103;28;20181;-88
2021/10/23 08:02:27;;;;;;;22.27;11.80;;;12.10;99.90;;;;;;5068545;28;20337;-88
2021/10/23 08:04:52;;;;;;;24.20;12.23;;;12.10;99.90;;;;;;5073854;28;20203;-88
2021/10/23 08:07:19;;;;;;;25.60;12.00;;;12.30;99.90;;;;;;5042294;28;20188;-89
2021/10/23 08:09:44;;;;;;;21.00;10.43;;;12.40;99.90;;;;;;5035160;28;20241;-89
2021/10/23 08:12:10;;;;;;;17.13;8.67;;;12.50;99.90;;;;;;5054986;28;20180;-88
2021/10/23 08:14:37;;;;;;;21.83;9.27;;;12.60;99.90;;;;;;5055167;28;20194;-89
2021/10/23 08:17:04;;;;;;;20.57;9.73;;;12.60;99.90;;;;;;5055089;28;20210;-88
2021/10/23 08:19:30;;;;;;;19.37;8.83;;;12.70;99.90;;;;;;5057950;28;20218;-88
2021/10/23 08:21:56;;;;;;;19.30;9.10;;;12.70;99.90;;;;;;5057268;28;20213;-88
2021/10/23 08:24:22;;;;;;;16.63;9.20;;;12.80;99.90;;;;;;5089626;28;20983;-89
2021/10/23 08:26:49;;;;;;;21.30;9.30;;;12.90;99.90;;;;;;5087648;28;20268;-88
2021/10/23 08:29:15;;;;;;;25.30;9.47;;;13.00;99.90;;;;;;5058653;28;20180;-88
2021/10/23 08:31:48;;;;;;;16.73;8.67;;;13.00;99.90;;;;;;5086273;28;20178;-89
2021/10/23 08:34:14;;;;;;;15.57;8.37;;;13.10;99.90;;;;;;5073617;28;20238;-88
2021/10/23 08:36:39;;;;;;;20.87;9.47;;;13.10;99.90;;;;;;5059534;28;20216;-88
2021/10/23 08:39:06;;;;;;;18.00;8.17;;;13.20;99.90;;;;;;5057614;28;20431;-88
2021/10/23 08:41:33;;;;;;;14.33;7.67;;;13.20;99.90;;;;;;5075403;28;20196;-89
2021/10/23 08:44:06;;;;;;;13.93;7.20;;;13.30;99.90;;;;;;5056404;28;20212;-89
2021/10/23 08:46:35;;;;;;;19.50;7.77;;;13.30;99.90;;;;;;5041480;28;20189;-88
2021/10/23 08:49:02;;;;;;;14.63;7.40;;;13.40;99.90;;;;;;5057964;28;20179;-88
2021/10/23 08:51:31;;;;;;;19.10;7.90;;;13.50;99.90;;;;;;5043340;28;20187;-89
2021/10/23 08:53:57;;;;;;;14.03;7.93;;;13.40;99.90;;;;;;5040931;28;20202;-88
2021/10/23 08:56:23;;;;;;;16.40;7.80;;;13.50;99.90;;;;;;5079928;28;20196;-88
2021/10/23 08:58:49;;;;;;;19.60;8.20;;;13.60;99.90;;;;;;5064269;28;20188;-87
2021/10/23 09:01:15;;;;;;;16.80;7.40;;;13.70;99.90;;;;;;5061531;28;20262;-89
2021/10/23 09:03:43;;;;;;;15.47;7.67;;;13.70;99.90;;;;;;5046009;28;20196;-88
2021/10/23 09:06:31;;;;;;;17.70;8.00;;;13.80;99.90;;;;;;5079320;28;20179;-88
2021/10/23 09:08:59;;;;;;;18.47;7.77;;;13.80;99.90;;;;;;5047247;28;20200;-89
2021/10/23 09:11:52;;;;;;;15.77;7.80;;;13.90;99.90;;;;;;5061951;28;20177;-88
2021/10/23 09:14:34;;;;;;;16.00;6.90;;;14.00;99.90;;;;;;5060709;28;20197;-88
2021/10/23 09:17:12;;;;;;;14.77;7.23;;;13.90;99.90;;;;;;5061785;28;20278;-88
2021/10/23 09:19:47;;;;;;;18.40;7.70;;;13.90;99.90;;;;;;5078779;28;20187;-88
2021/10/23 09:22:31;;;;;;;16.97;7.20;;;14.00;99.90;;;;;;5061407;28;20219;-88
2021/10/23 09:25:24;;;;;;;14.57;7.13;;;14.10;99.90;;;;;;5059343;28;20216;-87
2021/10/23 09:28:09;;;;;;;16.17;6.87;;;14.30;99.90;;;;;;5061503;28;20189;-88
2021/10/23 09:30:36;;;;;;;13.90;6.23;;;14.40;99.90;;;;;;5035974;28;20187;-88
2021/10/23 09:33:14;;;;;;;15.57;6.93;;;14.50;99.90;;;;;;5065182;28;20554;-87
2021/10/23 09:35:46;;;;;;;18.40;7.80;;;14.60;99.90;;;;;;5059553;28;20183;-88
2021/10/23 09:38:14;;;;;;;14.93;6.70;;;14.50;99.90;;;;;;5045442;28;20223;-87
2021/10/23 09:40:43;;;;;;;17.63;6.83;;;14.50;99.90;;;;;;5053594;28;20199;-88
2021/10/23 09:43:16;;;;;;;16.67;7.43;;;14.40;99.90;;;;;;5046027;28;20190;-86
2021/10/23 09:46:03;;;;;;;16.67;6.73;;;14.40;99.90;;;;;;5049720;28;21036;-88
2021/10/23 09:48:42;;;;;;;17.17;6.20;;;14.60;99.90;;;;;;5059332;28;20224;-87
2021/10/23 09:51:14;;;;;;;15.57;6.00;;;15.80;99.90;;;;;;5059138;28;20542;-87
2021/10/23 09:53:48;;;;;;;16.83;6.40;;;17.00;99.90;;;;;;5078179;28;20201;-87
2021/10/23 09:56:20;;;;;;;13.47;5.80;;;17.90;99.90;;;;;;5061279;28;20237;-87
2021/10/23 09:59:01;;;;;;;15.03;5.80;;;19.60;99.90;;;;;;5058629;28;20179;-87
2021/10/23 10:01:31;;;;;;;12.33;4.93;;;21.50;99.90;;;;;;5059662;28;20187;-87
2021/10/23 10:03:57;;;;;;;14.83;5.30;;;23.20;99.90;;;;;;5062535;28;20212;-87
2021/10/23 10:06:23;;;;;;;13.77;6.60;;;24.10;99.90;;;;;;5049087;28;20660;-87
2021/10/23 10:08:50;;;;;;;14.57;5.43;;;25.20;99.90;;;;;;5057065;28;20202;-87
2021/10/23 10:11:17;;;;;;;11.30;5.03;;;25.90;99.90;;;;;;5043785;28;20188;-88
2021/10/23 10:13:44;;;;;;;15.00;5.47;;;26.20;99.90;;;;;;5051716;28;20207;-88
2021/10/23 10:16:11;;;;;;;12.05;5.20;;;26.80;99.90;;;;;;5078105;28;20270;-88
2021/10/23 10:18:41;;;;;;;14.57;5.32;;;26.20;99.90;;;;;;5057317;28;20192;-87
2021/10/23 10:21:09;;;;;;;13.85;5.28;;;25.10;99.90;;;;;;5048148;28;20179;-87
2021/10/23 10:23:43;;;;;;;11.52;5.15;;;24.70;99.90;;;;;;5076798;28;20204;-87
2021/10/23 10:26:23;;;;;;;12.93;4.97;;;24.40;99.90;;;;;;5094844;28;20193;-87
2021/10/23 10:29:12;;;;;;;13.47;5.10;;;24.30;99.90;;;;;;5095819;28;20188;-88
2021/10/23 10:31:46;;;;;;;10.55;5.20;;;24.70;99.90;;;;;;5060556;28;20179;-87
2021/10/23 10:34:34;;;;;;;14.43;4.93;;;24.50;99.90;;;;;;5074727;28;20178;-88
2021/10/23 10:42:55;;;;;;;12.03;4.73;;;21.50;99.90;;;;;;5073819;28;20197;-87
2021/10/23 10:45:28;;;;;;;13.40;4.93;;;20.40;99.90;;;;;;5091469;28;20209;-87
2021/10/23 10:48:15;;;;;;;15.60;5.07;;;19.80;99.90;;;;;;5041510;28;20192;-87
2021/10/23 10:50:50;;;;;;;12.57;5.37;;;19.10;99.90;;;;;;5043487;28;20530;-87
2021/10/23 10:53:26;;;;;;;13.00;4.97;;;18.70;99.90;;;;;;5057756;28;20188;-86
2021/10/23 10:55:54;;;;;;;11.87;5.10;;;18.20;99.90;;;;;;5057825;28;20299;-87
2021/10/23 10:58:39;;;;;;;12.33;6.30;;;17.60;99.90;;;;;;5042438;28;20187;-87
2021/10/23 11:01:16;;;;;;;16.13;5.53;;;17.30;99.90;;;;;;5094177;28;20278;-86
2021/10/23 11:04:06;;;;;;;13.70;5.33;;;16.90;99.90;;;;;;5072642;28;20186;-87
2021/10/23 11:06:35;;;;;;;13.43;5.37;;;16.80;99.90;;;;;;5073229;28;20322;-87
2021/10/23 11:09:16;;;;;;;12.37;5.53;;;16.60;99.90;;;;;;5091806;28;20248;-86
2021/10/23 11:11:48;;;;;;;11.77;5.07;;;16.50;99.90;;;;;;5059771;28;20602;-87
2021/10/23 11:16:50;;;;;;;14.93;5.40;;;16.40;99.90;;;;;;5064494;28;20248;-87
2021/10/23 11:19:42;;;;;;;10.47;4.83;;;16.40;99.90;;;;;;5055901;28;20190;-87
2021/10/23 11:22:08;;;;;;;10.77;4.40;;;16.50;99.90;;;;;;5053228;28;20276;-86
2021/10/23 11:25:03;;;;;;;10.33;4.50;;;17.10;99.90;;;;;;5067997;28;20285;-87
2021/10/23 11:27:45;;;;;;;9.73;4.33;;;17.40;99.90;;;;;;5073088;28;20262;-87
2021/10/23 11:30:33;;;;;;;14.67;4.50;;;17.30;99.90;;;;;;5058613;28;20236;-86
2021/10/23 11:33:01;;;;;;;10.40;4.63;;;17.20;99.90;;;;;;5057144;28;20187;-87
2021/10/23 11:35:36;;;;;;;12.03;4.77;;;17.10;99.90;;;;;;5060053;28;20282;-85
2021/10/23 11:38:11;;;;;;;16.47;4.53;;;17.00;99.90;;;;;;5074467;28;20309;-86
2021/10/23 11:40:38;;;;;;;13.23;4.80;;;16.80;99.90;;;;;;5056513;28;20181;-85
2021/10/23 11:43:05;;;;;;;12.50;4.37;;;16.80;99.90;;;;;;5041477;28;20187;-86
2021/10/23 11:45:36;;;;;;;12.83;4.23;;;16.60;99.90;;;;;;5057019;28;20205;-86
2021/10/23 11:48:06;;;;;;;9.20;3.90;;;16.50;99.90;;;;;;5043431;28;20181;-85
2021/10/23 11:50:38;;;;;;;13.70;4.33;;;16.50;99.90;;;;;;5060326;28;20575;-86
2021/10/23 11:53:19;;;;;;;7.90;3.50;;;16.40;99.90;;;;;;5074877;28;20189;-85
2021/10/23 11:55:55;;;;;;;10.70;3.67;;;16.40;99.90;;;;;;5089905;28;20277;-85
2021/10/23 11:58:26;;;;;;;12.10;3.60;;;16.40;99.90;;;;;;5055238;28;20280;-85
2021/10/23 12:01:10;;;;;;;14.70;3.90;;;16.40;99.90;;;;;;5077827;28;20188;-85
2021/10/23 12:03:47;;;;;;;8.43;3.23;;;16.40;99.90;;;;;;5049730;28;20651;-85
2021/10/23 12:06:22;;;;;;;8.27;3.37;;;16.50;99.90;;;;;;5092688;28;20197;-85
2021/10/23 12:08:51;;;;;;;9.83;3.23;;;16.50;99.90;;;;;;5056111;28;20266;-85
2021/10/23 12:11:20;;;;;;;9.20;2.93;;;16.50;99.90;;;;;;5057886;28;20277;-85
2021/10/23 12:14:00;;;;;;;7.83;3.10;;;16.50;99.90;;;;;;5080734;28;20189;-87
2021/10/23 12:16:47;;;;;;;9.70;3.30;;;16.60;99.90;;;;;;5043330;28;20194;-86
2021/10/23 12:19:20;;;;;;;8.17;3.30;;;16.80;99.90;;;;;;5054920;28;20191;-87
2021/10/23 12:21:47;;;;;;;9.20;2.87;;;17.50;99.90;;;;;;5056696;28;20200;-86
2021/10/23 12:24:29;;;;;;;10.83;2.60;;;18.30;99.90;;;;;;5082832;28;20206;-87
2021/10/23 12:27:00;;;;;;;9.50;2.77;;;18.90;99.90;;;;;;5077933;28;20654;-87
2021/10/23 12:30:03;;;;;;;6.67;2.23;;;19.60;99.90;;;;;;5072075;28;20549;-86
2021/10/23 12:32:43;;;;;;;9.20;2.30;;;19.80;99.90;;;;;;5052417;28;20255;-86
2021/10/23 12:35:24;;;;;;;9.50;2.97;;;20.50;99.90;;;;;;5091659;28;20221;-86
2021/10/23 12:37:56;;;;;;;7.97;2.30;;;20.90;99.90;;;;;;5055388;28;20261;-87
2021/10/23 12:40:32;;;;;;;9.77;2.70;;;20.30;99.90;;;;;;5060184;28;20189;-87
2021/10/23 12:43:07;;;;;;;7.17;2.20;;;20.00;99.90;;;;;;5061226;28;20199;-87
2021/10/23 12:45:46;;;;;;;7.97;2.73;;;19.90;99.90;;;;;;5077629;28;20212;-87
2021/10/23 12:48:17;;;;;;;8.53;2.87;;;20.50;99.90;;;;;;5084507;28;20198;-86